Time;durP1;ratioP1;P1;durP2;ratioP2;P2;SDS_P1;SDS_P2;PMS_P1;PMS_P2;Temp;Humidity;BMP_temperature;BMP_pressure;BME280_temperature;BME280_humidity;BME280_pressure;Samples;Min_cycle;Max_cycle;Signal;HPM_P1;HPM_P2
2022/03/01 00:01:58;;;;;;;9.18;4.95;;;2.80;83.20;;;;;;5052424;28;20194;-73
2022/03/01 00:04:24;;;;;;;8.32;4.85;;;2.80;83.20;;;;;;5052665;28;20318;-73
2022/03/01 00:06:49;;;;;;;9.70;5.35;;;2.70;83.30;;;;;;5051648;28;20217;-74
2022/03/01 00:09:15;;;;;;;10.32;5.85;;;2.70;82.60;;;;;;5051130;28;20181;-74
2022/03/01 00:11:40;;;;;;;9.93;5.30;;;2.70;82.60;;;;;;5052683;28;20185;-73
2022/03/01 00:14:07;;;;;;;9.20;5.07;;;2.70;82.20;;;;;;5052688;28;20217;-73
2022/03/01 00:16:33;;;;;;;9.27;4.75;;;2.70;82.20;;;;;;5052472;28;20175;-73
2022/03/01 00:19:00;;;;;;;12.10;5.10;;;2.70;81.90;;;;;;5052158;28;20201;-73
2022/03/01 00:21:28;;;;;;;8.52;4.70;;;2.70;81.50;;;;;;5045849;28;20189;-74
2022/03/01 00:23:53;;;;;;;9.98;5.38;;;2.70;81.40;;;;;;5052269;28;20212;-73
2022/03/01 00:26:19;;;;;;;10.52;5.18;;;2.60;81.80;;;;;;5052312;28;20205;-73
2022/03/01 00:28:45;;;;;;;10.80;5.30;;;2.60;81.50;;;;;;5035231;28;20200;-72
2022/03/01 00:31:10;;;;;;;11.70;5.40;;;2.60;81.80;;;;;;5051281;28;20169;-72
2022/03/01 00:33:36;;;;;;;10.00;5.57;;;2.50;81.50;;;;;;5051738;28;20215;-73
2022/03/01 00:36:02;;;;;;;9.90;5.38;;;2.50;82.00;;;;;;5051341;28;20186;-73
2022/03/01 00:38:27;;;;;;;9.57;4.78;;;2.50;81.80;;;;;;5052459;28;20193;-71
2022/03/01 00:40:54;;;;;;;9.68;4.95;;;2.50;81.50;;;;;;5052155;28;20184;-73
2022/03/01 00:43:21;;;;;;;10.63;5.40;;;2.50;81.60;;;;;;5051813;28;20272;-73
2022/03/01 00:45:47;;;;;;;8.95;5.18;;;2.40;81.50;;;;;;5050853;28;20288;-72
2022/03/01 00:48:13;;;;;;;9.95;5.25;;;2.40;81.20;;;;;;5052163;28;20174;-73
2022/03/01 00:50:39;;;;;;;8.98;5.30;;;2.40;81.00;;;;;;5051693;28;20528;-73
2022/03/01 00:53:05;;;;;;;11.60;5.55;;;2.40;81.10;;;;;;5051804;28;20178;-73
2022/03/01 00:55:30;;;;;;;9.75;5.97;;;2.40;80.90;;;;;;5051509;28;20186;-71
2022/03/01 00:57:56;;;;;;;9.43;5.13;;;2.30;81.00;;;;;;5065248;28;20181;-72
2022/03/01 01:00:22;;;;;;;10.68;5.63;;;2.30;81.70;;;;;;5055521;28;20185;-72
2022/03/01 01:02:48;;;;;;;9.57;5.30;;;2.30;82.20;;;;;;5050230;28;20235;-72
2022/03/01 01:05:14;;;;;;;12.23;5.97;;;2.20;82.80;;;;;;5051893;28;20185;-72
2022/03/01 01:07:40;;;;;;;10.32;6.07;;;2.20;83.10;;;;;;5051741;28;20189;-72
2022/03/01 01:10:06;;;;;;;10.73;5.38;;;2.10;83.30;;;;;;5050435;28;20185;-73
2022/03/01 01:12:33;;;;;;;11.23;5.72;;;2.00;84.10;;;;;;5050594;28;20177;-72
2022/03/01 01:14:59;;;;;;;10.52;5.38;;;2.00;84.60;;;;;;5051914;28;20216;-72
2022/03/01 01:17:24;;;;;;;10.65;5.75;;;1.90;84.90;;;;;;5052966;28;20192;-72
2022/03/01 01:19:50;;;;;;;13.13;5.80;;;1.90;85.10;;;;;;5058226;28;20179;-72
2022/03/01 01:25:00;;;;;;;9.48;5.18;;;1.80;85.90;;;;;;5058684;28;20234;-72
2022/03/01 01:27:26;;;;;;;11.70;5.72;;;1.80;86.30;;;;;;5057351;28;20536;-72
2022/03/01 01:29:51;;;;;;;13.98;5.97;;;1.70;86.50;;;;;;5058142;28;20181;-72
2022/03/01 01:32:17;;;;;;;10.73;6.13;;;1.70;86.80;;;;;;5056966;28;20275;-73
2022/03/01 01:34:42;;;;;;;10.90;5.63;;;1.60;87.00;;;;;;5057916;28;20574;-71
2022/03/01 01:37:08;;;;;;;11.77;5.72;;;1.50;87.30;;;;;;5058016;28;20257;-72
2022/03/01 01:39:33;;;;;;;13.20;6.13;;;1.50;87.80;;;;;;5058246;28;20192;-72
2022/03/01 01:41:59;;;;;;;11.80;5.65;;;1.40;88.10;;;;;;5058231;28;20271;-72
2022/03/01 01:44:25;;;;;;;11.20;5.65;;;1.30;88.40;;;;;;5058278;28;20234;-72
2022/03/01 01:46:50;;;;;;;10.38;5.68;;;1.30;89.10;;;;;;5057428;28;20629;-72
2022/03/01 01:49:16;;;;;;;12.27;6.03;;;1.20;89.30;;;;;;5058177;28;20259;-73
2022/03/01 01:51:41;;;;;;;12.18;5.40;;;1.20;89.80;;;;;;5057646;28;20250;-72
2022/03/01 01:54:07;;;;;;;10.82;5.95;;;1.20;90.00;;;;;;5057929;28;20231;-72
2022/03/01 01:56:33;;;;;;;14.13;6.40;;;1.10;90.10;;;;;;5058526;28;20188;-71
2022/03/01 01:58:58;;;;;;;14.50;6.68;;;1.10;90.10;;;;;;5058101;28;20667;-72
2022/03/01 02:01:24;;;;;;;11.70;5.82;;;1.10;90.20;;;;;;5057896;28;20220;-71
2022/03/01 02:03:49;;;;;;;13.38;6.13;;;1.10;90.30;;;;;;5057619;28;20217;-72
2022/03/01 02:06:15;;;;;;;11.73;6.20;;;1.10;90.40;;;;;;5057846;28;20261;-71
2022/03/01 02:08:41;;;;;;;13.05;5.95;;;1.10;90.40;;;;;;5057678;28;20173;-71
2022/03/01 02:11:08;;;;;;;11.48;6.30;;;1.10;90.50;;;;;;5057849;28;20174;-72
2022/03/01 02:13:34;;;;;;;13.38;6.50;;;1.10;90.50;;;;;;5057783;28;20209;-71
2022/03/01 02:15:59;;;;;;;12.35;6.43;;;1.00;90.70;;;;;;5057864;28;20512;-72
2022/03/01 02:18:25;;;;;;;14.52;6.53;;;1.00;90.90;;;;;;5057956;28;20188;-72
2022/03/01 02:20:51;;;;;;;17.17;6.65;;;1.00;91.00;;;;;;5057786;28;20185;-72
2022/03/01 02:23:16;;;;;;;14.27;6.53;;;1.00;91.00;;;;;;5057377;28;20188;-72
2022/03/01 02:25:42;;;;;;;13.95;6.65;;;1.00;91.30;;;;;;5057889;28;20223;-72
2022/03/01 02:28:07;;;;;;;13.35;6.20;;;0.90;91.40;;;;;;5057905;28;20184;-73
2022/03/01 02:30:34;;;;;;;12.15;5.90;;;0.90;91.50;;;;;;5053595;28;20652;-72
2022/03/01 02:33:00;;;;;;;10.75;5.75;;;0.90;91.60;;;;;;5054270;28;20177;-72
2022/03/01 02:35:26;;;;;;;12.57;6.55;;;0.80;91.70;;;;;;5054537;28;20194;-73
2022/03/01 02:37:52;;;;;;;11.68;6.43;;;0.80;91.90;;;;;;5053952;28;20208;-72
2022/03/01 02:40:17;;;;;;;12.75;6.50;;;0.70;92.00;;;;;;5054553;28;20189;-72
2022/03/01 02:42:45;;;;;;;13.52;6.70;;;0.60;92.20;;;;;;5054333;28;20538;-72
2022/03/01 02:45:13;;;;;;;15.15;6.80;;;0.60;92.60;;;;;;5054178;28;20660;-72
2022/03/01 02:47:39;;;;;;;12.77;6.75;;;0.60;92.70;;;;;;5053772;28;20190;-72
2022/03/01 02:50:06;;;;;;;11.50;6.05;;;0.50;93.00;;;;;;5054772;28;20583;-72
2022/03/01 02:52:32;;;;;;;13.75;6.30;;;0.50;93.20;;;;;;5053392;28;20515;-72
2022/03/01 02:54:58;;;;;;;12.30;6.03;;;0.40;93.30;;;;;;5037539;28;20279;-71
2022/03/01 02:57:24;;;;;;;12.30;6.47;;;0.40;93.50;;;;;;5053605;28;20346;-72
2022/03/01 02:59:54;;;;;;;14.48;6.43;;;0.30;93.60;;;;;;5053690;28;20189;-72
2022/03/01 03:02:20;;;;;;;12.45;6.30;;;0.30;93.80;;;;;;5051208;28;20185;-69
2022/03/01 03:04:45;;;;;;;14.70;6.47;;;0.30;94.10;;;;;;5054447;28;20182;-69
2022/03/01 03:07:12;;;;;;;13.40;6.57;;;0.30;94.20;;;;;;5038213;28;20173;-69
2022/03/01 03:09:37;;;;;;;14.63;6.72;;;0.20;94.30;;;;;;5035257;28;20193;-70
2022/03/01 03:12:05;;;;;;;13.33;6.73;;;0.30;94.60;;;;;;5034364;28;20178;-70
2022/03/01 03:14:30;;;;;;;13.05;6.78;;;0.20;94.70;;;;;;5050438;28;20232;-70
2022/03/01 03:16:57;;;;;;;12.73;5.97;;;0.20;94.70;;;;;;5048811;28;20657;-70
2022/03/01 03:19:23;;;;;;;11.73;6.15;;;0.20;94.90;;;;;;5034512;28;20210;-69
2022/03/01 03:21:49;;;;;;;14.37;6.47;;;0.10;95.00;;;;;;5049011;28;20241;-69
2022/03/01 03:24:16;;;;;;;12.90;6.75;;;0.10;95.40;;;;;;5047232;28;20210;-69
2022/03/01 03:26:41;;;;;;;12.13;6.50;;;0.00;95.60;;;;;;5034000;28;20178;-70
2022/03/01 03:29:10;;;;;;;14.77;6.50;;;0.00;95.90;;;;;;5050082;28;20722;-69
2022/03/01 03:31:41;;;;;;;14.25;6.07;;;-0.10;95.90;;;;;;5045723;28;20192;-69
2022/03/01 03:34:08;;;;;;;12.73;6.43;;;-0.20;96.20;;;;;;5034827;28;20240;-69
2022/03/01 03:36:35;;;;;;;14.80;6.20;;;-0.20;96.60;;;;;;5043320;28;20681;-69
2022/03/01 03:39:03;;;;;;;13.70;7.07;;;-0.20;96.80;;;;;;5052053;28;20269;-70
2022/03/01 03:41:29;;;;;;;13.48;5.95;;;-0.20;96.90;;;;;;5052523;28;20657;-69
2022/03/01 03:43:55;;;;;;;16.03;6.60;;;-0.30;97.10;;;;;;5053201;28;20189;-70
2022/03/01 03:46:21;;;;;;;11.67;5.97;;;-0.30;97.10;;;;;;5052882;28;20213;-69
2022/03/01 03:48:47;;;;;;;12.93;6.73;;;-0.30;97.20;;;;;;5052527;28;20189;-70
2022/03/01 03:51:13;;;;;;;11.57;5.77;;;-0.40;97.30;;;;;;5053351;28;20232;-70
2022/03/01 03:53:39;;;;;;;13.93;5.87;;;-0.40;97.30;;;;;;5052492;28;20244;-69
2022/03/01 03:56:05;;;;;;;13.13;6.47;;;-0.30;97.40;;;;;;5052944;28;20636;-69
2022/03/01 03:58:30;;;;;;;12.65;6.30;;;-0.30;97.50;;;;;;5067461;28;20185;-69
2022/03/01 04:00:56;;;;;;;13.90;6.50;;;-0.30;97.50;;;;;;5052723;28;20652;-69
2022/03/01 04:03:23;;;;;;;15.00;7.00;;;-0.40;97.60;;;;;;5052867;28;20229;-71
2022/03/01 04:05:50;;;;;;;13.83;6.17;;;-0.30;97.80;;;;;;5053031;28;20178;-71
2022/03/01 04:08:16;;;;;;;12.63;6.50;;;-0.30;97.90;;;;;;5052920;28;20193;-71
2022/03/01 04:10:42;;;;;;;14.53;6.23;;;-0.40;97.80;;;;;;5052503;28;20202;-71
2022/03/01 04:13:08;;;;;;;13.30;6.67;;;-0.30;97.90;;;;;;5052904;28;20192;-71
2022/03/01 04:15:34;;;;;;;13.60;6.30;;;-0.40;97.90;;;;;;5052951;28;20177;-71
2022/03/01 04:17:59;;;;;;;11.87;6.30;;;-0.40;98.00;;;;;;5052454;28;20261;-71
2022/03/01 04:20:25;;;;;;;14.90;6.73;;;-0.40;98.00;;;;;;5052394;28;20262;-71
2022/03/01 04:22:51;;;;;;;12.43;6.03;;;-0.50;98.10;;;;;;5052335;28;20185;-72
2022/03/01 04:25:16;;;;;;;14.67;6.67;;;-0.50;98.10;;;;;;5051877;28;20181;-72
2022/03/01 04:27:42;;;;;;;14.70;6.53;;;-0.50;98.20;;;;;;5052564;28;20234;-73
2022/03/01 04:30:11;;;;;;;12.00;6.13;;;-0.50;98.40;;;;;;5052135;28;20177;-72
2022/03/01 04:32:37;;;;;;;14.80;6.67;;;-0.50;98.60;;;;;;5051512;28;20185;-71
2022/03/01 04:35:03;;;;;;;14.52;6.32;;;-0.60;98.90;;;;;;5052124;28;20227;-71
2022/03/01 04:37:29;;;;;;;13.07;5.93;;;-0.60;98.90;;;;;;5052061;28;20185;-71
2022/03/01 04:39:54;;;;;;;14.90;6.80;;;-0.60;99.10;;;;;;5052062;28;20178;-72
2022/03/01 04:42:20;;;;;;;12.50;6.60;;;-0.70;99.20;;;;;;5051457;28;20177;-72
2022/03/01 04:44:45;;;;;;;13.27;6.63;;;-0.70;99.40;;;;;;5051827;28;20193;-72
2022/03/01 04:47:11;;;;;;;17.13;7.13;;;-0.70;99.40;;;;;;5052482;28;20173;-69
2022/03/01 04:49:37;;;;;;;13.73;6.50;;;-0.70;99.60;;;;;;5051337;28;20655;-70
2022/03/01 04:52:03;;;;;;;15.18;7.00;;;-0.80;99.70;;;;;;5051773;28;20170;-70
2022/03/01 04:54:28;;;;;;;12.63;6.23;;;-0.80;99.70;;;;;;5051912;28;20247;-68
2022/03/01 04:56:54;;;;;;;13.27;6.47;;;-0.80;99.80;;;;;;5051723;28;20533;-70
2022/03/01 04:59:20;;;;;;;12.47;6.40;;;-0.80;99.90;;;;;;5050831;28;20234;-70
2022/03/01 05:01:45;;;;;;;11.63;6.33;;;-0.70;99.90;;;;;;5051869;28;20177;-70
2022/03/01 05:04:11;;;;;;;14.87;7.03;;;-0.70;99.90;;;;;;5051488;28;20217;-70
2022/03/01 05:06:36;;;;;;;16.50;7.30;;;-0.70;99.90;;;;;;5051844;28;20177;-70
2022/03/01 05:09:02;;;;;;;14.07;6.73;;;-0.80;99.90;;;;;;5051746;28;20644;-69
2022/03/01 05:11:28;;;;;;;12.07;6.20;;;-0.80;99.90;;;;;;5051146;28;20269;-69
2022/03/01 05:13:53;;;;;;;15.93;6.60;;;-0.90;99.90;;;;;;5051227;28;20299;-65
2022/03/01 05:16:19;;;;;;;13.93;6.60;;;-0.90;99.90;;;;;;5050826;28;20649;-66
2022/03/01 05:18:44;;;;;;;14.07;6.77;;;-0.90;99.90;;;;;;5051601;28;20181;-67
2022/03/01 05:21:10;;;;;;;12.40;6.50;;;-0.90;99.90;;;;;;5051481;28;20612;-70
2022/03/01 05:23:36;;;;;;;14.93;6.93;;;-0.90;99.90;;;;;;5051845;28;20187;-64
2022/03/01 05:26:01;;;;;;;13.63;6.13;;;-0.90;99.90;;;;;;5052030;28;20637;-68
2022/03/01 05:28:27;;;;;;;15.10;7.03;;;-1.00;99.90;;;;;;5051271;28;20202;-67
2022/03/01 05:30:52;;;;;;;15.63;7.00;;;-1.00;99.90;;;;;;5051535;28;20197;-67
2022/03/01 05:33:18;;;;;;;13.93;7.47;;;-1.10;99.90;;;;;;5051332;28;20177;-67
2022/03/01 05:35:44;;;;;;;17.87;7.07;;;-1.10;99.90;;;;;;5051749;28;20186;-64
2022/03/01 05:38:10;;;;;;;14.40;7.93;;;-1.10;99.90;;;;;;5051685;28;20320;-64
2022/03/01 05:40:37;;;;;;;16.03;7.63;;;-1.10;99.90;;;;;;5051443;28;20189;-68
2022/03/01 05:43:05;;;;;;;17.50;8.10;;;-1.20;99.90;;;;;;5050430;28;20701;-70
2022/03/01 05:45:31;;;;;;;17.30;7.77;;;-1.20;99.90;;;;;;5050304;28;20193;-67
2022/03/01 05:47:57;;;;;;;12.90;7.23;;;-1.20;99.90;;;;;;5051590;28;20668;-66
2022/03/01 05:50:23;;;;;;;15.87;7.73;;;-1.20;99.90;;;;;;5051395;28;20190;-62
2022/03/01 05:52:49;;;;;;;13.20;8.03;;;-1.10;99.90;;;;;;5051093;28;20197;-62
2022/03/01 05:55:15;;;;;;;13.77;7.73;;;-1.20;99.90;;;;;;5050153;28;20217;-64
2022/03/01 05:57:41;;;;;;;13.23;6.93;;;-1.20;99.90;;;;;;5050921;28;20698;-66
2022/03/01 06:00:12;;;;;;;14.70;7.47;;;-1.30;99.90;;;;;;5050979;28;20185;-62
2022/03/01 06:02:39;;;;;;;15.00;7.23;;;-1.20;99.90;;;;;;5050927;28;20645;-60
2022/03/01 06:05:05;;;;;;;14.43;7.70;;;-1.20;99.90;;;;;;5052663;28;20602;-67
2022/03/01 06:07:31;;;;;;;13.90;7.13;;;-1.20;99.90;;;;;;5054699;28;20181;-64
2022/03/01 06:09:56;;;;;;;15.00;7.43;;;-1.20;99.90;;;;;;5053925;28;20228;-64
2022/03/01 06:12:22;;;;;;;15.40;7.57;;;-1.20;99.90;;;;;;5055008;28;20530;-65
2022/03/01 06:14:47;;;;;;;17.23;7.30;;;-1.20;99.90;;;;;;5054033;28;20221;-65
2022/03/01 06:17:13;;;;;;;17.40;7.60;;;-1.20;99.90;;;;;;5054703;28;20252;-63
2022/03/01 06:19:38;;;;;;;16.03;7.23;;;-1.20;99.90;;;;;;5054649;28;20188;-63
2022/03/01 06:22:05;;;;;;;17.63;7.07;;;-1.20;99.90;;;;;;5054932;28;20178;-63
2022/03/01 06:24:32;;;;;;;16.07;8.00;;;-1.20;99.90;;;;;;5054916;28;20170;-63
2022/03/01 06:26:58;;;;;;;16.13;7.53;;;-1.20;99.90;;;;;;5055234;28;20523;-62
2022/03/01 06:29:24;;;;;;;13.70;6.60;;;-1.20;99.90;;;;;;5053613;28;20181;-63
2022/03/01 06:31:50;;;;;;;14.03;6.63;;;-1.20;99.90;;;;;;5054760;28;20713;-63
2022/03/01 06:34:16;;;;;;;17.90;6.63;;;-1.20;99.90;;;;;;5053568;28;20209;-63
2022/03/01 06:36:41;;;;;;;16.40;7.37;;;-1.20;99.90;;;;;;5054705;28;20169;-63
2022/03/01 06:39:07;;;;;;;15.03;7.33;;;-1.20;99.90;;;;;;5054628;28;20672;-64
2022/03/01 06:41:32;;;;;;;14.53;6.67;;;-1.10;99.90;;;;;;5054110;28;20185;-63
2022/03/01 06:43:58;;;;;;;17.93;7.17;;;-1.10;99.90;;;;;;5054142;28;20640;-62
2022/03/01 06:46:25;;;;;;;16.83;7.70;;;-1.10;99.90;;;;;;5054578;28;20170;-63
2022/03/01 06:48:50;;;;;;;16.90;8.03;;;-1.00;99.90;;;;;;5054068;28;20212;-61
2022/03/01 06:51:16;;;;;;;16.60;7.30;;;-1.00;99.90;;;;;;5054717;28;20243;-65
2022/03/01 06:53:41;;;;;;;14.67;7.30;;;-0.90;99.90;;;;;;5054162;28;20248;-60
2022/03/01 06:56:07;;;;;;;16.47;7.03;;;-0.90;99.90;;;;;;5054497;28;20709;-59
2022/03/01 06:58:33;;;;;;;14.73;7.73;;;-0.90;99.90;;;;;;5054273;28;20189;-60
2022/03/01 07:01:01;;;;;;;19.67;8.73;;;-0.80;99.90;;;;;;5054397;28;20181;-60
2022/03/01 07:03:26;;;;;;;24.13;10.33;;;-0.70;99.90;;;;;;5051311;28;20613;-62
2022/03/01 07:05:53;;;;;;;17.00;7.23;;;-0.60;99.90;;;;;;5034437;28;20666;-63
2022/03/01 07:08:20;;;;;;;22.33;10.03;;;-0.50;99.90;;;;;;5039661;28;20256;-63
2022/03/01 07:10:47;;;;;;;15.70;7.20;;;-0.30;99.90;;;;;;5052564;28;20169;-62
2022/03/01 07:13:12;;;;;;;10.80;6.53;;;0.00;99.90;;;;;;5052220;28;20170;-63
2022/03/01 07:15:38;;;;;;;15.65;7.03;;;0.30;99.90;;;;;;5053474;28;20255;-62
2022/03/01 07:18:04;;;;;;;12.80;6.53;;;0.60;99.70;;;;;;5052242;28;20180;-63
2022/03/01 07:20:29;;;;;;;16.60;8.30;;;1.10;98.70;;;;;;5035211;28;20182;-63
2022/03/01 07:22:55;;;;;;;17.60;8.27;;;1.50;97.50;;;;;;5034211;28;20205;-64
2022/03/01 07:25:21;;;;;;;12.38;7.10;;;1.90;96.30;;;;;;5035395;28;20189;-64
2022/03/01 07:27:50;;;;;;;15.90;7.60;;;2.40;95.20;;;;;;5035122;28;20671;-64
2022/03/01 07:30:20;;;;;;;14.55;7.30;;;2.70;93.80;;;;;;5033966;28;20193;-65
2022/03/01 07:32:47;;;;;;;16.42;8.13;;;3.10;92.50;;;;;;5035093;28;20205;-64
2022/03/01 07:35:12;;;;;;;17.40;8.50;;;3.40;91.70;;;;;;5034891;28;20221;-64
2022/03/01 07:37:38;;;;;;;17.90;8.68;;;3.60;91.00;;;;;;5034113;28;20178;-65
2022/03/01 07:40:08;;;;;;;18.38;9.45;;;3.90;89.30;;;;;;5053720;28;20228;-65
2022/03/01 07:42:34;;;;;;;17.00;9.10;;;4.10;87.10;;;;;;5050596;28;20545;-65
2022/03/01 07:44:59;;;;;;;20.40;8.88;;;4.50;86.10;;;;;;5050414;28;20185;-65
2022/03/01 07:47:25;;;;;;;15.05;7.47;;;4.80;84.40;;;;;;5053578;28;20534;-63
2022/03/01 07:49:50;;;;;;;15.70;7.47;;;5.10;81.50;;;;;;5052818;28;20716;-61
2022/03/01 07:52:16;;;;;;;17.23;8.88;;;5.30;78.90;;;;;;5052799;28;20190;-61
2022/03/01 07:54:42;;;;;;;16.10;7.88;;;6.20;91.30;;;;;;5053421;28;20227;-62
2022/03/01 07:57:07;;;;;;;16.98;8.18;;;7.30;84.10;;;;;;5053012;28;20173;-62
2022/03/01 07:59:33;;;;;;;12.38;6.25;;;8.30;74.90;;;;;;5053389;28;20261;-62
2022/03/01 08:01:58;;;;;;;14.70;7.05;;;9.10;69.40;;;;;;5052665;28;20208;-65
2022/03/01 08:04:24;;;;;;;12.02;6.55;;;9.90;66.20;;;;;;5053197;28;20229;-66
2022/03/01 08:06:49;;;;;;;12.40;7.03;;;10.10;54.70;;;;;;5052898;28;20660;-69
2022/03/01 08:09:15;;;;;;;15.05;7.55;;;9.90;53.90;;;;;;5053253;28;20256;-67
2022/03/01 08:11:41;;;;;;;11.00;6.55;;;9.50;52.90;;;;;;5052860;28;20181;-67
2022/03/01 08:14:06;;;;;;;9.48;6.30;;;9.10;53.10;;;;;;5053095;28;20251;-67
2022/03/01 08:16:32;;;;;;;12.93;6.43;;;8.80;53.00;;;;;;5053129;28;20181;-66
2022/03/01 08:18:57;;;;;;;12.75;6.93;;;8.60;53.90;;;;;;5051446;28;20719;-67
2022/03/01 08:21:23;;;;;;;12.45;6.72;;;8.60;54.30;;;;;;5052936;28;20256;-70
2022/03/01 08:23:48;;;;;;;12.35;6.50;;;8.50;53.40;;;;;;5052487;28;20652;-69
2022/03/01 08:26:14;;;;;;;11.75;6.18;;;8.50;53.00;;;;;;5052835;28;20534;-68
2022/03/01 08:28:40;;;;;;;12.45;6.43;;;8.20;53.30;;;;;;5051383;28;20188;-67
2022/03/01 08:31:06;;;;;;;12.85;6.35;;;8.30;52.60;;;;;;5052483;28;20478;-67
2022/03/01 08:33:33;;;;;;;14.48;6.80;;;8.10;52.10;;;;;;5051492;28;20201;-67
2022/03/01 08:36:00;;;;;;;14.55;6.43;;;8.00;52.50;;;;;;5051844;28;20185;-67
2022/03/01 08:38:26;;;;;;;11.48;6.60;;;7.80;52.20;;;;;;5052976;28;20184;-67
2022/03/01 08:40:53;;;;;;;11.40;6.97;;;7.60;52.40;;;;;;5052577;28;20181;-67
2022/03/01 08:43:20;;;;;;;11.90;6.30;;;7.50;53.10;;;;;;5052780;28;20174;-67
2022/03/01 08:45:46;;;;;;;14.27;6.95;;;7.50;53.10;;;;;;5052497;28;20217;-67
2022/03/01 08:48:11;;;;;;;9.88;5.97;;;7.60;53.60;;;;;;5053085;28;20201;-67
2022/03/01 08:50:37;;;;;;;13.18;6.45;;;7.70;53.00;;;;;;5052950;28;20200;-68
2022/03/01 08:53:03;;;;;;;11.98;6.55;;;7.80;52.90;;;;;;5051299;28;20235;-68
2022/03/01 08:55:30;;;;;;;12.55;6.72;;;7.90;52.90;;;;;;5051649;28;20213;-68
2022/03/01 08:57:57;;;;;;;11.05;6.25;;;8.00;52.70;;;;;;5052199;28;20192;-68
2022/03/01 09:00:23;;;;;;;12.73;6.45;;;7.80;52.70;;;;;;5052336;28;20178;-68
2022/03/01 09:02:49;;;;;;;10.60;6.13;;;8.00;53.40;;;;;;5052007;28;20232;-68
2022/03/01 09:05:15;;;;;;;10.95;6.38;;;8.20;53.30;;;;;;5051903;28;20177;-68
2022/03/01 09:07:41;;;;;;;11.40;6.78;;;8.50;54.70;;;;;;5050422;28;20188;-68
2022/03/01 09:10:08;;;;;;;12.52;6.60;;;8.80;54.90;;;;;;5051978;28;20174;-67
2022/03/01 09:12:34;;;;;;;12.82;6.68;;;8.90;51.70;;;;;;5063658;28;20200;-67
2022/03/01 09:14:59;;;;;;;11.25;5.57;;;8.70;51.30;;;;;;5051738;28;20205;-68
2022/03/01 09:17:25;;;;;;;13.43;6.97;;;8.20;50.40;;;;;;5051154;28;20223;-68
2022/03/01 09:19:51;;;;;;;11.88;6.10;;;7.90;51.90;;;;;;5051657;28;20173;-68
2022/03/01 09:22:17;;;;;;;12.30;6.75;;;7.80;52.80;;;;;;5051816;28;20184;-68
2022/03/01 09:24:44;;;;;;;14.90;6.22;;;7.60;52.70;;;;;;5051896;28;20186;-68
2022/03/01 09:27:10;;;;;;;10.77;5.70;;;6.90;53.00;;;;;;5051838;28;20713;-69
2022/03/01 09:29:35;;;;;;;12.25;6.88;;;7.70;53.20;;;;;;5051459;28;20185;-71
2022/03/01 09:32:01;;;;;;;9.40;5.53;;;7.80;54.20;;;;;;5051081;28;20180;-70
2022/03/01 09:34:26;;;;;;;12.05;5.75;;;8.10;53.60;;;;;;5051906;28;20231;-69
2022/03/01 09:36:52;;;;;;;11.93;5.97;;;8.10;51.60;;;;;;5051475;28;20233;-69
2022/03/01 09:39:18;;;;;;;10.55;5.95;;;8.00;51.50;;;;;;5053167;28;20461;-70
2022/03/01 09:41:44;;;;;;;11.10;5.88;;;8.00;52.20;;;;;;5055711;28;20411;-70
2022/03/01 09:44:09;;;;;;;11.45;6.00;;;8.00;52.00;;;;;;5055402;28;20227;-70
2022/03/01 09:46:38;;;;;;;14.85;7.22;;;8.00;51.70;;;;;;5055135;28;20213;-69
2022/03/01 09:49:05;;;;;;;12.60;6.53;;;8.10;51.80;;;;;;5044677;28;20177;-70
2022/03/01 09:51:31;;;;;;;12.95;6.30;;;8.30;51.80;;;;;;5055933;28;20166;-69
2022/03/01 09:53:57;;;;;;;11.70;6.28;;;8.40;51.90;;;;;;5062902;28;20312;-70
2022/03/01 09:56:22;;;;;;;10.25;5.63;;;8.60;51.90;;;;;;5056099;28;20287;-69
2022/03/01 09:58:50;;;;;;;13.23;6.00;;;8.60;50.90;;;;;;5055656;28;20714;-70
2022/03/01 10:01:16;;;;;;;12.68;6.35;;;8.60;50.20;;;;;;5047689;28;20182;-70
2022/03/01 10:03:48;;;;;;;12.93;6.38;;;8.40;49.90;;;;;;5065691;28;20225;-66
2022/03/01 10:06:16;;;;;;;12.70;6.28;;;8.30;49.80;;;;;;5053613;28;20216;-67
2022/03/01 10:08:43;;;;;;;11.98;7.03;;;8.20;50.20;;;;;;5055229;28;20260;-68
2022/03/01 10:11:09;;;;;;;11.85;6.30;;;8.20;50.60;;;;;;5055213;28;20249;-69
2022/03/01 10:13:39;;;;;;;10.48;5.35;;;8.20;50.90;;;;;;5054572;28;20201;-70
2022/03/01 10:16:07;;;;;;;12.68;5.78;;;8.20;50.20;;;;;;5054721;28;20221;-73
2022/03/01 10:18:49;;;;;;;13.45;5.80;;;8.20;50.20;;;;;;5054646;28;20193;-68
2022/03/01 10:21:15;;;;;;;12.88;6.55;;;8.10;50.00;;;;;;5054510;28;20184;-71
2022/03/01 10:23:52;;;;;;;10.05;5.75;;;8.10;50.40;;;;;;5054684;28;20181;-70
2022/03/01 10:26:24;;;;;;;11.77;5.75;;;8.20;52.80;;;;;;5053186;28;20189;-73
2022/03/01 10:28:52;;;;;;;11.23;5.43;;;8.80;62.90;;;;;;5054536;28;20259;-71
2022/03/01 10:31:20;;;;;;;9.32;5.68;;;9.80;58.00;;;;;;5054797;28;20642;-69
2022/03/01 10:34:00;;;;;;;14.27;6.10;;;10.80;51.50;;;;;;5054108;28;20316;-70
2022/03/01 10:36:30;;;;;;;10.18;5.88;;;11.30;48.50;;;;;;5054706;28;20177;-74
2022/03/01 10:38:56;;;;;;;12.07;6.18;;;11.40;45.20;;;;;;5054208;28;20185;-73
2022/03/01 10:41:27;;;;;;;8.13;5.53;;;11.10;44.60;;;;;;5053348;28;20184;-71
2022/03/01 10:43:56;;;;;;;9.68;6.20;;;10.70;45.40;;;;;;5053242;28;20641;-70
2022/03/01 10:46:21;;;;;;;10.50;5.93;;;10.40;44.70;;;;;;5054501;28;20177;-70
2022/03/01 10:48:57;;;;;;;10.13;6.18;;;10.10;44.90;;;;;;5052925;28;20200;-69
2022/03/01 10:51:22;;;;;;;11.63;5.75;;;9.70;45.50;;;;;;5053447;28;20204;-70
2022/03/01 10:53:48;;;;;;;10.73;5.53;;;9.40;46.80;;;;;;5053100;28;20248;-70
2022/03/01 10:56:16;;;;;;;9.23;6.00;;;9.30;46.60;;;;;;5052783;28;20178;-68
2022/03/01 10:58:43;;;;;;;10.43;5.55;;;9.20;46.70;;;;;;5054134;28;20264;-69
2022/03/01 11:01:10;;;;;;;12.00;5.80;;;9.20;46.30;;;;;;5053833;28;20244;-69
2022/03/01 11:03:36;;;;;;;9.95;5.60;;;9.10;45.70;;;;;;5052744;28;20221;-68
2022/03/01 11:06:03;;;;;;;9.45;5.40;;;9.00;45.60;;;;;;5054024;28;20184;-69
2022/03/01 11:08:38;;;;;;;9.10;5.38;;;8.90;47.00;;;;;;5053846;28;20178;-69
2022/03/01 11:11:06;;;;;;;10.65;5.38;;;9.00;46.30;;;;;;5053513;28;20189;-69
2022/03/01 11:13:34;;;;;;;9.20;5.05;;;9.10;47.30;;;;;;5054174;28;20181;-69
2022/03/01 11:16:21;;;;;;;12.02;6.18;;;9.30;45.80;;;;;;5054222;28;20174;-69
2022/03/01 11:19:14;;;;;;;11.18;5.45;;;9.40;45.20;;;;;;5034228;28;20178;-69
2022/03/01 11:21:44;;;;;;;10.48;4.85;;;9.60;46.00;;;;;;5037721;28;20184;-69
2022/03/01 11:24:13;;;;;;;8.02;4.97;;;9.90;46.00;;;;;;5054155;28;20169;-69
2022/03/01 11:26:39;;;;;;;10.18;5.82;;;9.90;44.50;;;;;;5053610;28;20224;-69
2022/03/01 11:29:24;;;;;;;10.65;5.70;;;9.70;45.50;;;;;;5054016;28;20173;-68
2022/03/01 11:31:58;;;;;;;10.70;5.47;;;9.60;46.20;;;;;;5053510;28;20209;-70
2022/03/01 11:34:24;;;;;;;11.43;5.55;;;9.70;45.50;;;;;;5052734;28;20240;-72
2022/03/01 11:36:52;;;;;;;10.63;5.25;;;9.80;46.10;;;;;;5072155;28;20193;-68
2022/03/01 11:39:23;;;;;;;8.35;4.72;;;10.00;44.50;;;;;;5058382;28;20185;-69
2022/03/01 11:41:51;;;;;;;8.85;5.00;;;10.20;43.40;;;;;;5053770;28;20177;-69
2022/03/01 11:44:24;;;;;;;8.68;5.10;;;10.30;42.60;;;;;;5053250;28;20610;-65
2022/03/01 11:46:51;;;;;;;10.30;5.03;;;10.30;41.20;;;;;;5053623;28;20204;-66
2022/03/01 11:49:19;;;;;;;8.80;4.85;;;10.20;40.90;;;;;;5046686;28;20296;-66
2022/03/01 11:51:47;;;;;;;9.43;5.35;;;10.10;40.70;;;;;;5048142;28;20181;-66
2022/03/01 11:54:19;;;;;;;10.60;5.78;;;10.20;41.50;;;;;;5053427;28;20216;-65
2022/03/01 11:56:46;;;;;;;8.57;4.80;;;10.30;41.70;;;;;;5053401;28;20651;-66
2022/03/01 11:59:13;;;;;;;7.80;4.88;;;10.30;40.60;;;;;;5053347;28;20181;-67
2022/03/01 12:01:39;;;;;;;9.43;5.30;;;10.20;40.50;;;;;;5053166;28;20216;-66
2022/03/01 12:04:07;;;;;;;9.95;5.15;;;10.10;41.10;;;;;;5052813;28;20308;-66
2022/03/01 12:06:37;;;;;;;7.72;4.72;;;10.00;41.20;;;;;;5051811;28;20173;-66
2022/03/01 12:09:06;;;;;;;8.30;4.80;;;9.80;40.70;;;;;;5052911;28;20649;-66
2022/03/01 12:11:33;;;;;;;11.15;4.63;;;9.70;40.10;;;;;;5053025;28;20184;-67
2022/03/01 12:14:11;;;;;;;6.90;3.92;;;9.50;39.40;;;;;;5052648;28;20539;-66
2022/03/01 12:16:37;;;;;;;6.65;4.32;;;9.40;39.80;;;;;;5052449;28;20188;-66
2022/03/01 12:19:14;;;;;;;9.38;4.95;;;9.30;39.80;;;;;;5052804;28;20543;-66
2022/03/01 12:21:51;;;;;;;8.07;4.93;;;9.30;39.10;;;;;;5052721;28;20180;-66
2022/03/01 12:24:18;;;;;;;8.43;4.65;;;9.40;39.30;;;;;;5052550;28;20644;-66
2022/03/01 12:26:47;;;;;;;7.72;4.47;;;9.40;39.40;;;;;;5052784;28;20185;-65
2022/03/01 12:29:14;;;;;;;9.25;4.93;;;9.50;39.30;;;;;;5052421;28;20177;-66
2022/03/01 12:31:39;;;;;;;8.05;4.63;;;9.50;39.10;;;;;;5052680;28;20181;-66
2022/03/01 12:34:08;;;;;;;5.75;3.95;;;9.50;39.70;;;;;;5052075;28;20209;-65
2022/03/01 12:36:39;;;;;;;7.65;4.40;;;9.50;39.60;;;;;;5052669;28;20200;-66
2022/03/01 12:39:11;;;;;;;8.32;4.53;;;9.40;39.10;;;;;;5052403;28;20719;-66
2022/03/01 12:41:38;;;;;;;7.30;4.30;;;9.30;39.50;;;;;;5052493;28;20182;-66
2022/03/01 12:44:07;;;;;;;7.55;4.47;;;9.40;40.00;;;;;;5048589;28;20205;-66
2022/03/01 12:46:33;;;;;;;9.50;4.55;;;9.50;40.80;;;;;;5052176;28;20228;-66